Time;durP1;ratioP1;P1;durP2;ratioP2;P2;SDS_P1;SDS_P2;PMS_P1;PMS_P2;Temp;Humidity;BMP_temperature;BMP_pressure;BME280_temperature;BME280_humidity;BME280_pressure;Samples;Min_cycle;Max_cycle;Signal;HPM_P1;HPM_P2
2021/04/27 00:01:14;;;;;;;7.43;3.47;;;;;;;7.78;33.56;99028.19;5090278;28;20028;-59
2021/04/27 00:03:40;;;;;;;5.43;3.20;;;;;;;7.81;33.66;99016.44;5090857;28;20475;-65
2021/04/27 00:06:06;;;;;;;4.60;3.28;;;;;;;7.53;33.12;98968.06;5094537;28;20031;-64
2021/04/27 00:08:31;;;;;;;3.70;2.80;;;;;;;7.83;33.05;99020.66;5110572;28;20050;-64
2021/04/27 00:10:57;;;;;;;5.13;3.38;;;;;;;7.82;33.12;99016.31;5105772;28;20032;-63
2021/04/27 00:13:27;;;;;;;6.78;3.28;;;;;;;7.73;33.28;99015.25;5107822;28;20539;-62
2021/04/27 00:15:52;;;;;;;5.65;2.90;;;;;;;7.75;33.28;99020.47;5108153;28;20180;-61
2021/04/27 00:18:18;;;;;;;5.35;2.80;;;;;;;7.66;33.45;99007.88;5103121;28;20144;-64
2021/04/27 00:20:43;;;;;;;6.55;3.28;;;;;;;7.72;33.34;99000.22;5107947;28;20506;-63
2021/04/27 00:23:09;;;;;;;5.13;3.28;;;;;;;7.68;33.66;99001.47;5108432;28;20593;-63
2021/04/27 00:25:35;;;;;;;6.18;3.13;;;;;;;7.68;33.53;98992.59;5107959;28;20445;-64
2021/04/27 00:28:01;;;;;;;8.20;3.10;;;;;;;7.57;33.99;98983.69;5107902;28;20043;-64
2021/04/27 00:30:27;;;;;;;5.75;3.70;;;;;;;7.69;34.69;99002.28;5108462;28;20020;-63
2021/04/27 00:32:53;;;;;;;11.07;4.00;;;;;;;7.70;35.79;98998.66;5111319;28;20088;-63
2021/04/27 00:35:19;;;;;;;8.50;4.25;;;;;;;7.73;36.92;99006.41;5114154;28;20023;-64
2021/04/27 00:37:45;;;;;;;10.38;4.75;;;;;;;7.60;37.86;98978.09;5112314;28;20035;-62
2021/04/27 00:40:14;;;;;;;9.40;3.90;;;;;;;7.55;38.48;98985.63;5114362;28;20067;-64
2021/04/27 00:42:44;;;;;;;11.15;4.15;;;;;;;7.46;39.72;99002.34;5095565;28;20594;-64
2021/04/27 00:45:13;;;;;;;8.52;3.80;;;;;;;7.01;40.44;98926.94;5094010;28;20552;-62
2021/04/27 00:47:39;;;;;;;6.95;4.18;;;;;;;7.30;39.68;99006.25;5093819;28;20059;-64
2021/04/27 00:50:09;;;;;;;5.32;3.92;;;;;;;7.33;40.62;99008.69;5094990;28;20040;-65
2021/04/27 00:52:35;;;;;;;7.90;3.60;;;;;;;7.12;40.84;98992.63;5093582;28;20036;-63
2021/04/27 00:55:02;;;;;;;5.88;3.70;;;;;;;7.08;41.16;98998.31;5093359;28;20479;-63
2021/04/27 00:57:28;;;;;;;6.03;3.75;;;;;;;7.08;40.90;98985.81;5094220;28;20043;-64
2021/04/27 00:59:57;;;;;;;5.32;3.70;;;;;;;7.18;41.60;99001.91;5108842;28;20119;-64
2021/04/27 01:02:24;;;;;;;8.25;4.18;;;;;;;7.09;41.89;98990.19;5113479;28;20035;-65
2021/04/27 01:04:49;;;;;;;7.75;3.90;;;;;;;7.11;42.17;98992.72;5113403;28;20044;-63
2021/04/27 01:07:18;;;;;;;8.02;4.00;;;;;;;7.01;42.63;98993.47;5113768;28;20039;-63
2021/04/27 01:09:51;;;;;;;9.57;4.10;;;;;;;6.98;43.03;98991.03;5111685;28;20114;-63
2021/04/27 01:12:29;;;;;;;9.63;4.50;;;;;;;7.03;43.12;98996.84;5107906;28;20071;-63
2021/04/27 01:15:08;;;;;;;6.68;4.20;;;;;;;7.10;42.89;99002.50;5111497;28;20148;-63
2021/04/27 01:17:35;;;;;;;7.20;3.80;;;;;;;6.90;42.97;98990.78;5106151;28;20407;-64
2021/04/27 01:20:03;;;;;;;6.65;4.10;;;;;;;6.88;44.46;98998.91;5110351;28;20736;-63
2021/04/27 01:22:40;;;;;;;7.30;4.00;;;;;;;6.92;44.38;98996.84;5109679;28;20516;-63
2021/04/27 01:25:07;;;;;;;6.13;3.97;;;;;;;6.92;44.29;98993.34;5109553;28;20063;-64
2021/04/27 01:27:33;;;;;;;6.25;4.03;;;;;;;6.86;44.10;98994.66;5105632;28;20043;-63
2021/04/27 01:30:00;;;;;;;5.65;4.20;;;;;;;6.86;44.52;98992.00;5107718;28;20047;-63
2021/04/27 01:32:26;;;;;;;5.25;3.90;;;;;;;6.88;44.54;98995.41;5110961;28;20172;-62
2021/04/27 01:34:53;;;;;;;6.85;3.95;;;;;;;6.75;44.59;98964.44;5111046;28;20046;-62
2021/04/27 01:37:19;;;;;;;6.20;4.30;;;;;;;6.87;45.04;98985.72;5109119;28;20027;-63
2021/04/27 01:39:45;;;;;;;7.38;3.90;;;;;;;6.84;44.67;98964.69;5110399;28;20084;-63
2021/04/27 01:42:11;;;;;;;9.23;4.13;;;;;;;6.91;45.32;98989.00;5110736;28;20051;-64
2021/04/27 01:44:39;;;;;;;4.25;3.85;;;;;;;6.69;45.42;98940.97;5111094;28;20047;-64
2021/04/27 01:47:06;;;;;;;8.27;4.50;;;;;;;6.95;44.98;98985.13;5112462;28;20048;-64
2021/04/27 01:49:32;;;;;;;8.05;4.75;;;;;;;6.95;45.24;98985.94;5111686;28;20122;-64
2021/04/27 01:51:59;;;;;;;7.30;4.20;;;;;;;6.95;45.37;98988.63;5110509;28;20131;-64
2021/04/27 01:54:27;;;;;;;8.05;4.68;;;;;;;6.59;44.84;98930.19;5113192;28;20248;-65
2021/04/27 01:57:00;;;;;;;7.20;4.82;;;;;;;6.88;45.60;98974.09;5108286;28;20446;-66
2021/04/27 01:59:25;;;;;;;9.32;5.30;;;;;;;6.90;45.58;98990.78;5092058;28;20135;-65
2021/04/27 02:01:51;;;;;;;9.18;4.47;;;;;;;6.55;46.22;98935.91;5092233;28;20114;-64
2021/04/27 02:04:22;;;;;;;9.93;5.28;;;;;;;6.78;46.69;98973.16;5092469;28;20086;-64
2021/04/27 02:06:48;;;;;;;8.23;4.95;;;;;;;6.49;46.31;98947.00;5091930;28;20489;-63
2021/04/27 02:09:15;;;;;;;8.10;5.57;;;;;;;6.76;46.75;98986.56;5096232;28;20070;-64
2021/04/27 02:11:43;;;;;;;12.80;4.70;;;;;;;6.75;46.50;98993.72;5092331;28;20062;-63
2021/04/27 02:14:12;;;;;;;6.93;5.00;;;;;;;6.73;47.32;98990.28;5090906;28;20124;-64
2021/04/27 02:16:42;;;;;;;9.48;5.60;;;;;;;6.73;47.75;98994.78;5091893;28;20081;-63
2021/04/27 02:19:09;;;;;;;9.82;5.65;;;;;;;6.32;46.98;98942.03;5091761;28;20035;-63
2021/04/27 02:21:35;;;;;;;9.45;5.63;;;;;;;6.65;47.57;98991.88;5111013;28;20055;-61
2021/04/27 02:24:08;;;;;;;11.38;5.65;;;;;;;6.64;48.03;98990.19;5112212;28;20912;-64
2021/04/27 02:26:35;;;;;;;7.65;4.93;;;;;;;6.60;48.22;98994.91;5111997;28;20032;-63
2021/04/27 02:29:04;;;;;;;6.93;5.07;;;;;;;6.61;48.77;98988.63;5112288;28;20034;-64
2021/04/27 02:31:32;;;;;;;9.50;5.40;;;;;;;6.54;48.71;98988.22;5111768;28;20507;-63
2021/04/27 02:33:58;;;;;;;9.52;5.60;;;;;;;6.55;48.75;98986.44;5098681;28;20040;-63
2021/04/27 02:36:24;;;;;;;10.43;5.70;;;;;;;6.60;48.50;98984.25;5091646;28;20040;-62
2021/04/27 02:38:49;;;;;;;12.73;5.55;;;;;;;6.47;48.01;98968.41;5091639;28;20544;-62
2021/04/27 02:41:15;;;;;;;7.28;5.05;;;;;;;6.39;48.79;98969.00;5091506;28;20068;-64
2021/04/27 02:43:41;;;;;;;7.95;4.78;;;;;;;6.54;48.22;98987.41;5091394;28;20028;-64
2021/04/27 02:46:07;;;;;;;11.13;5.13;;;;;;;6.45;48.03;98976.50;5092137;28;20055;-63
2021/04/27 02:48:32;;;;;;;8.55;5.15;;;;;;;6.47;48.63;98979.03;5091122;28;20570;-64
2021/04/27 02:51:00;;;;;;;11.13;5.95;;;;;;;6.51;48.68;98987.63;5092165;28;20083;-62
2021/04/27 02:53:26;;;;;;;9.20;4.97;;;;;;;6.44;48.57;98969.47;5091677;28;20032;-63
2021/04/27 02:55:52;;;;;;;10.40;5.18;;;;;;;6.55;48.92;98991.75;5090908;28;20031;-63
2021/04/27 02:58:19;;;;;;;7.95;5.28;;;;;;;6.58;48.79;98981.72;5091108;28;20028;-60
2021/04/27 03:00:45;;;;;;;9.02;5.50;;;;;;;6.55;48.71;98981.13;5091575;28;20032;-64
2021/04/27 03:03:11;;;;;;;7.68;5.05;;;;;;;6.63;49.58;98980.50;5102605;28;20031;-62
2021/04/27 03:05:38;;;;;;;11.45;5.30;;;;;;;6.22;49.60;98916.28;5109758;28;20081;-63
2021/04/27 03:08:05;;;;;;;7.32;5.45;;;;;;;6.53;49.69;98967.09;5111405;28;20074;-64
2021/04/27 03:10:30;;;;;;;9.27;5.03;;;;;;;6.15;49.41;98900.81;5111342;28;20032;-65
2021/04/27 03:12:56;;;;;;;9.57;5.38;;;;;;;6.64;49.04;98983.03;5111502;28;20083;-64
2021/04/27 03:15:22;;;;;;;7.72;5.10;;;;;;;6.59;49.85;98974.59;5109266;28;20251;-62
2021/04/27 03:17:47;;;;;;;7.30;5.30;;;;;;;6.13;49.39;98902.75;5111538;28;20118;-63
2021/04/27 03:20:14;;;;;;;11.30;5.90;;;;;;;6.58;49.94;98980.88;5111321;28;20032;-63
2021/04/27 03:22:40;;;;;;;12.77;6.50;;;;;;;6.60;50.33;98984.25;5111159;28;20185;-64
2021/04/27 03:25:09;;;;;;;9.30;5.75;;;;;;;6.62;49.69;98977.00;5110812;28;20039;-63
2021/04/27 03:27:35;;;;;;;9.50;5.50;;;;;;;6.57;50.28;98979.19;5103294;28;20066;-63
2021/04/27 03:30:02;;;;;;;10.43;5.53;;;;;;;6.46;50.58;98978.19;5090522;28;20072;-63
2021/04/27 03:32:28;;;;;;;9.20;5.57;;;;;;;6.45;50.37;98965.84;5090520;28;20036;-63
2021/04/27 03:34:54;;;;;;;9.82;5.93;;;;;;;6.47;50.46;98979.88;5090397;28;20043;-63
2021/04/27 03:37:19;;;;;;;11.45;6.00;;;;;;;6.33;51.40;98972.13;5090938;28;20095;-62
2021/04/27 03:39:45;;;;;;;10.60;5.70;;;;;;;6.28;51.80;98974.31;5094673;28;20036;-61
2021/04/27 03:42:11;;;;;;;9.00;6.18;;;;;;;6.28;52.03;98975.13;5110837;28;20034;-64
2021/04/27 03:44:36;;;;;;;9.48;5.80;;;;;;;6.30;52.16;98967.06;5110636;28;20047;-64
2021/04/27 03:47:03;;;;;;;15.05;6.38;;;;;;;6.28;52.46;98975.13;5110760;28;20067;-65
2021/04/27 03:49:29;;;;;;;8.18;5.43;;;;;;;6.24;52.40;98960.38;5110980;28;20035;-63
2021/04/27 03:51:55;;;;;;;6.95;5.63;;;;;;;6.22;52.34;98943.72;5109260;28;20348;-64
2021/04/27 03:54:21;;;;;;;9.43;5.95;;;;;;;6.28;52.16;98964.50;5111042;28;20039;-64
2021/04/27 03:56:46;;;;;;;8.82;5.38;;;;;;;6.12;52.29;98950.69;5105355;28;20042;-62
2021/04/27 03:59:13;;;;;;;10.50;5.43;;;;;;;6.13;52.56;98950.56;5108405;28;20039;-63
2021/04/27 04:01:39;;;;;;;8.60;5.78;;;;;;;6.20;52.53;98977.53;5108373;28;20525;-63
2021/04/27 04:04:05;;;;;;;10.57;5.88;;;;;;;6.03;53.29;98938.97;5106103;28;20028;-62
2021/04/27 04:06:31;;;;;;;14.50;5.70;;;;;;;6.17;52.99;98957.34;5105541;28;20044;-65
2021/04/27 04:08:57;;;;;;;10.80;5.57;;;;;;;6.14;52.76;98951.41;5110950;28;20042;-63
2021/04/27 04:11:23;;;;;;;7.30;5.32;;;;;;;6.22;53.31;98964.13;5112579;28;20028;-61
2021/04/27 04:13:49;;;;;;;9.25;5.43;;;;;;;6.27;53.62;98953.97;5114751;28;20064;-64
2021/04/27 04:16:14;;;;;;;9.82;4.78;;;;;;;6.27;53.84;98946.00;5114473;28;20039;-65
2021/04/27 04:18:40;;;;;;;12.65;5.72;;;;;;;6.36;53.74;98955.94;5113073;28;20134;-63
2021/04/27 04:21:06;;;;;;;8.23;5.45;;;;;;;6.41;53.49;98955.59;5114519;28;20031;-64
2021/04/27 04:23:32;;;;;;;11.35;6.35;;;;;;;6.35;53.49;98942.75;5114324;28;20384;-65
2021/04/27 04:25:58;;;;;;;8.95;6.25;;;;;;;6.42;53.62;98944.81;5114362;28;20491;-65
2021/04/27 04:28:24;;;;;;;10.52;6.00;;;;;;;5.92;54.13;98857.38;5114059;28;20035;-63
2021/04/27 04:30:49;;;;;;;8.70;6.22;;;;;;;6.35;54.32;98938.28;5112828;28;20533;-64
2021/04/27 04:33:15;;;;;;;9.55;6.45;;;;;;;6.33;54.44;98929.59;5114329;28;20031;-65
2021/04/27 04:35:41;;;;;;;8.98;7.10;;;;;;;6.43;54.57;98940.38;5114440;28;20120;-63
2021/04/27 04:38:06;;;;;;;10.38;7.72;;;;;;;6.49;54.86;98945.19;5114330;28;20126;-64
2021/04/27 04:40:32;;;;;;;15.65;8.63;;;;;;;6.49;54.68;98936.38;5114586;28;20047;-65
2021/04/27 04:42:58;;;;;;;12.80;8.65;;;;;;;6.49;54.58;98947.00;5112142;28;20138;-64
2021/04/27 04:45:25;;;;;;;11.57;8.50;;;;;;;6.38;55.95;98922.09;5112820;28;20498;-61
2021/04/27 04:47:52;;;;;;;17.30;8.35;;;;;;;6.47;55.74;98920.53;5114354;28;20055;-65
2021/04/27 04:50:19;;;;;;;14.35;9.13;;;;;;;6.49;56.41;98928.38;5113780;28;20414;-64
2021/04/27 04:52:45;;;;;;;14.18;8.20;;;;;;;6.50;55.86;98920.31;5113618;28;20490;-65
2021/04/27 04:55:12;;;;;;;11.63;8.52;;;;;;;6.49;56.30;98912.44;5101381;28;20039;-64
2021/04/27 04:57:39;;;;;;;11.45;7.57;;;;;;;6.46;56.05;98919.69;5093243;28;20039;-65
2021/04/27 05:00:11;;;;;;;14.30;8.45;;;;;;;6.36;56.63;98893.94;5093399;28;20093;-66
2021/04/27 05:02:38;;;;;;;11.52;8.10;;;;;;;6.35;55.91;98902.88;5093192;28;20094;-63
2021/04/27 05:05:06;;;;;;;12.05;8.23;;;;;;;6.48;56.03;98908.94;5093560;28;20048;-64
2021/04/27 05:07:39;;;;;;;11.73;7.88;;;;;;;6.41;55.55;98895.28;5105256;28;20043;-64
2021/04/27 05:10:05;;;;;;;11.43;7.50;;;;;;;6.61;56.04;98898.19;5113234;28;20160;-65
2021/04/27 05:12:31;;;;;;;14.32;8.60;;;;;;;6.67;55.54;98905.66;5113238;28;20024;-64
2021/04/27 05:14:57;;;;;;;14.77;7.80;;;;;;;6.87;54.92;98905.91;5113492;28;20039;-62
2021/04/27 05:17:23;;;;;;;11.55;7.90;;;;;;;6.82;54.66;98884.97;5112002;28;20063;-65
2021/04/27 05:19:49;;;;;;;13.98;7.85;;;;;;;6.59;54.30;98845.09;5113089;28;20135;-65
2021/04/27 05:22:15;;;;;;;12.48;8.57;;;;;;;6.92;54.71;98898.38;5113432;28;20394;-63
2021/04/27 05:24:41;;;;;;;13.75;8.32;;;;;;;6.90;54.66;98902.97;5113032;28;20438;-64
2021/04/27 05:27:07;;;;;;;11.27;8.00;;;;;;;6.88;55.10;98907.59;5113291;28;20538;-65
2021/04/27 05:29:34;;;;;;;9.85;8.40;;;;;;;6.86;54.40;98899.72;5106646;28;20038;-65
2021/04/27 05:32:00;;;;;;;11.80;8.18;;;;;;;6.66;55.15;98872.06;5092648;28;20081;-64
2021/04/27 05:34:26;;;;;;;9.52;7.97;;;;;;;6.60;55.38;98891.16;5092922;28;20137;-64
2021/04/27 05:36:51;;;;;;;9.07;7.90;;;;;;;6.64;55.74;98908.56;5092479;28;20119;-64
2021/04/27 05:39:18;;;;;;;11.40;7.40;;;;;;;6.51;55.41;98867.94;5092477;28;20110;-65
2021/04/27 05:41:44;;;;;;;7.75;6.95;;;;;;;6.65;55.10;98893.47;5093471;28;20518;-64
2021/04/27 05:44:09;;;;;;;10.55;6.97;;;;;;;6.63;54.82;98885.59;5092782;28;20040;-67
2021/04/27 05:46:35;;;;;;;10.05;6.20;;;;;;;6.66;54.97;98889.84;5092480;28;20496;-66
2021/04/27 05:49:02;;;;;;;11.75;7.03;;;;;;;6.69;55.17;98887.75;5092619;28;20043;-63
2021/04/27 05:51:28;;;;;;;8.13;6.55;;;;;;;6.68;55.00;98870.13;5092426;28;20106;-60
2021/04/27 05:53:54;;;;;;;10.88;7.20;;;;;;;6.65;55.50;98880.19;5092687;28;20032;-64
2021/04/27 05:56:20;;;;;;;9.35;6.65;;;;;;;6.73;54.95;98891.88;5108917;28;20412;-65
2021/04/27 05:58:46;;;;;;;8.88;6.43;;;;;;;6.16;54.55;98801.50;5112863;28;20027;-65
2021/04/27 06:01:13;;;;;;;11.57;7.03;;;;;;;6.65;54.65;98891.66;5112307;28;20070;-65
2021/04/27 06:03:39;;;;;;;9.98;6.38;;;;;;;6.57;54.33;98883.44;5112611;28;20035;-64
2021/04/27 06:06:05;;;;;;;9.73;5.40;;;;;;;6.55;54.34;98867.59;5112263;28;20039;-63
2021/04/27 06:08:33;;;;;;;7.38;4.93;;;;;;;6.75;54.18;98886.44;5093174;28;20047;-63
2021/04/27 06:10:59;;;;;;;6.30;4.93;;;;;;;6.74;53.92;98874.09;5092203;28;20036;-60
2021/04/27 06:13:25;;;;;;;6.57;5.25;;;;;;;6.87;53.62;98885.47;5091947;28;20126;-63
2021/04/27 06:15:51;;;;;;;6.90;4.63;;;;;;;6.89;53.48;98877.34;5091768;28;20460;-65
2021/04/27 06:18:16;;;;;;;5.25;4.07;;;;;;;6.85;53.08;98866.09;5091579;28;21451;-64
2021/04/27 06:20:42;;;;;;;4.47;3.60;;;;;;;6.91;52.21;98886.03;5107389;28;20058;-64
2021/04/27 06:23:08;;;;;;;7.57;4.07;;;;;;;6.87;52.51;98866.84;5092526;28;20052;-63
2021/04/27 06:25:34;;;;;;;5.30;3.70;;;;;;;6.90;52.25;98881.69;5091603;28;20044;-63
2021/04/27 06:28:00;;;;;;;5.68;4.40;;;;;;;6.85;52.35;98873.25;5091784;28;20028;-63
2021/04/27 06:30:26;;;;;;;6.15;4.00;;;;;;;6.81;52.43;98883.28;5090659;28;20051;-64
2021/04/27 06:32:54;;;;;;;7.55;3.92;;;;;;;6.79;52.82;98868.44;5098798;28;20100;-63
2021/04/27 06:35:25;;;;;;;4.60;3.72;;;;;;;6.68;52.79;98864.78;5099015;28;20054;-64
2021/04/27 06:37:50;;;;;;;4.88;3.70;;;;;;;6.66;52.69;98861.41;5100005;28;20190;-64
2021/04/27 06:40:16;;;;;;;5.68;3.75;;;;;;;6.65;52.99;98865.03;5099545;28;20032;-62
2021/04/27 06:42:42;;;;;;;6.55;4.40;;;;;;;6.59;53.24;98861.06;5099072;28;20067;-64
2021/04/27 06:45:08;;;;;;;6.40;4.20;;;;;;;6.37;53.41;98832.69;5100322;28;20027;-62
2021/04/27 06:47:34;;;;;;;6.30;4.13;;;;;;;6.42;53.61;98838.47;5099422;28;20080;-64
2021/04/27 06:50:00;;;;;;;5.68;4.60;;;;;;;6.37;53.26;98856.59;5101269;28;20547;-64
2021/04/27 06:52:26;;;;;;;7.60;4.85;;;;;;;6.52;53.90;98874.97;5105627;28;20024;-64
2021/04/27 06:54:51;;;;;;;6.78;5.07;;;;;;;6.31;53.78;98846.47;5104201;28;20040;-64
2021/04/27 06:57:17;;;;;;;7.68;5.40;;;;;;;6.39;54.44;98881.25;5104158;28;20482;-63
2021/04/27 06:59:43;;;;;;;8.68;5.20;;;;;;;6.39;54.39;98894.53;5111316;28;20042;-64
2021/04/27 07:02:09;;;;;;;8.55;5.82;;;;;;;6.31;55.39;98900.47;5111292;28;20127;-63
2021/04/27 07:04:36;;;;;;;7.32;4.88;;;;;;;6.36;55.88;98899.25;5111340;28;20032;-64
2021/04/27 07:07:05;;;;;;;7.85;5.38;;;;;;;6.36;56.24;98893.94;5110993;28;20039;-63
2021/04/27 07:09:32;;;;;;;7.22;4.82;;;;;;;6.44;55.25;98894.19;5104343;28;20147;-63
2021/04/27 07:11:58;;;;;;;16.63;4.93;;;;;;;6.41;54.93;98897.09;5096534;28;20046;-65
2021/04/27 07:14:25;;;;;;;7.10;4.75;;;;;;;6.43;54.90;98888.03;5108535;28;20403;-64
2021/04/27 07:16:50;;;;;;;7.25;5.00;;;;;;;6.36;55.02;98881.50;5110851;28;20039;-67
2021/04/27 07:19:16;;;;;;;6.20;4.70;;;;;;;6.25;55.01;98884.13;5110672;28;20042;-67
2021/04/27 07:21:42;;;;;;;7.90;4.45;;;;;;;6.17;55.37;98882.94;5101973;28;20135;-64
2021/04/27 07:24:08;;;;;;;5.65;4.43;;;;;;;6.10;55.59;98892.34;5091081;28;20449;-69
2021/04/27 07:26:36;;;;;;;13.82;5.50;;;;;;;6.03;56.42;98891.97;5107278;28;20039;-63
2021/04/27 07:29:03;;;;;;;9.88;5.30;;;;;;;5.72;56.05;98843.81;5108394;28;20038;-63
2021/04/27 07:31:30;;;;;;;5.80;4.38;;;;;;;6.04;56.02;98908.78;5108785;28;20035;-62
2021/04/27 07:33:55;;;;;;;5.60;4.05;;;;;;;6.00;56.72;98913.44;5104962;28;20082;-64
2021/04/27 07:36:21;;;;;;;7.22;4.90;;;;;;;6.01;56.84;98904.53;5106374;28;20122;-63
2021/04/27 07:38:47;;;;;;;7.18;5.18;;;;;;;6.01;57.12;98909.84;5106190;28;20456;-63
2021/04/27 07:41:12;;;;;;;6.53;4.88;;;;;;;6.00;57.30;98904.59;5108297;28;20038;-63
2021/04/27 07:43:38;;;;;;;8.93;4.55;;;;;;;6.06;57.03;98906.84;5109333;28;20055;-63
2021/04/27 07:46:04;;;;;;;6.53;4.53;;;;;;;6.06;57.44;98904.19;5103437;28;20052;-62
2021/04/27 07:48:30;;;;;;;5.80;4.45;;;;;;;5.88;57.80;98882.47;5090497;28;20061;-63
2021/04/27 07:50:57;;;;;;;8.90;5.05;;;;;;;5.85;58.02;98899.50;5090069;28;20122;-62
2021/04/27 07:53:22;;;;;;;7.45;5.75;;;;;;;5.56;58.25;98876.00;5090222;28;20031;-62
2021/04/27 07:55:49;;;;;;;7.30;5.40;;;;;;;5.51;58.54;98901.19;5098536;28;20055;-62
2021/04/27 07:58:15;;;;;;;8.18;5.38;;;;;;;5.44;59.35;98920.25;5105731;28;20028;-61
2021/04/27 08:00:40;;;;;;;11.02;5.28;;;;;;;5.39;59.48;98897.66;5088747;28;20047;-61
2021/04/27 08:03:06;;;;;;;11.73;6.15;;;;;;;5.36;59.54;98885.44;5089586;28;20039;-63
2021/04/27 08:05:32;;;;;;;8.13;5.28;;;;;;;5.49;59.76;98879.22;5093311;28;20031;-63
2021/04/27 08:07:58;;;;;;;8.77;5.07;;;;;;;5.64;59.54;98898.47;5110029;28;20230;-62
2021/04/27 08:10:24;;;;;;;11.48;5.85;;;;;;;5.60;59.29;98885.44;5108838;28;20142;-62
2021/04/27 08:12:52;;;;;;;10.95;5.68;;;;;;;5.62;59.55;98890.63;5110143;28;20506;-64
2021/04/27 08:15:21;;;;;;;8.43;5.70;;;;;;;5.25;60.21;98830.50;5103806;28;20036;-63
2021/04/27 08:17:47;;;;;;;8.48;5.82;;;;;;;5.52;59.92;98882.47;5108610;28;20555;-64
2021/04/27 08:20:14;;;;;;;8.68;5.57;;;;;;;5.52;60.16;98892.28;5109907;28;20146;-63
2021/04/27 08:22:42;;;;;;;9.00;5.40;;;;;;;5.54;60.51;98885.88;5109988;28;20143;-63
2021/04/27 08:25:09;;;;;;;8.90;5.75;;;;;;;5.64;60.39;98878.06;5110030;28;20513;-63
2021/04/27 08:27:35;;;;;;;8.75;5.35;;;;;;;5.76;60.62;98881.59;5105915;28;20454;-64
2021/04/27 08:30:00;;;;;;;8.73;5.65;;;;;;;5.88;60.70;98880.69;5106449;28;20104;-63
2021/04/27 08:32:26;;;;;;;8.18;5.20;;;;;;;5.98;60.78;98874.66;5089511;28;20028;-62
2021/04/27 08:34:52;;;;;;;7.13;4.70;;;;;;;6.07;60.43;98881.09;5088987;28;20189;-63
2021/04/27 08:37:18;;;;;;;7.80;4.70;;;;;;;6.20;59.99;98878.34;5090296;28;20050;-62
2021/04/27 08:39:44;;;;;;;7.07;4.82;;;;;;;6.31;60.42;98870.38;5089156;28;20051;-63
2021/04/27 08:42:12;;;;;;;9.10;4.15;;;;;;;6.47;59.91;98876.16;5089504;28;20118;-62
2021/04/27 08:44:39;;;;;;;5.00;3.42;;;;;;;6.60;58.95;98862.75;5089229;28;20474;-62
2021/04/27 08:47:09;;;;;;;3.65;3.10;;;;;;;6.75;58.32;98866.03;5097533;28;20112;-62
2021/04/27 08:49:36;;;;;;;4.38;3.58;;;;;;;6.75;58.13;98852.72;5109998;28;20075;-62
2021/04/27 08:52:02;;;;;;;4.53;3.88;;;;;;;6.23;57.75;98791.25;5110172;28;20032;-63
2021/04/27 08:54:28;;;;;;;7.20;4.25;;;;;;;6.47;58.52;98862.88;5111117;28;20042;-62
2021/04/27 08:56:54;;;;;;;8.10;3.95;;;;;;;6.26;58.75;98845.94;5111339;28;20132;-63
2021/04/27 08:59:20;;;;;;;5.45;3.53;;;;;;;6.28;59.27;98876.78;5111168;28;20035;-62
2021/04/27 09:01:46;;;;;;;6.53;3.75;;;;;;;5.83;59.15;98797.84;5113523;28;20091;-62
2021/04/27 09:04:14;;;;;;;5.25;3.47;;;;;;;6.22;59.35;98865.78;5113336;28;20495;-62
2021/04/27 09:06:40;;;;;;;7.38;4.22;;;;;;;5.84;59.85;98796.88;5113516;28;20039;-62
2021/04/27 09:09:06;;;;;;;6.88;3.95;;;;;;;6.24;60.01;98859.38;5108781;28;20099;-62
2021/04/27 09:11:37;;;;;;;5.00;4.10;;;;;;;6.35;60.03;98857.69;5113397;28;20433;-62
2021/04/27 09:14:21;;;;;;;6.43;3.85;;;;;;;6.50;60.53;98855.63;5113406;28;20075;-63
2021/04/27 09:16:49;;;;;;;4.90;3.80;;;;;;;6.49;59.92;98856.59;5112879;28;20028;-64
2021/04/27 09:19:45;;;;;;;6.47;4.00;;;;;;;6.55;60.74;98856.94;5111314;28;20043;-63
2021/04/27 09:22:25;;;;;;;5.80;4.05;;;;;;;6.59;59.79;98868.19;5113253;28;20055;-63
2021/04/27 09:25:01;;;;;;;5.32;4.15;;;;;;;6.55;59.57;98862.28;5112978;28;20044;-63
2021/04/27 09:27:31;;;;;;;5.82;3.75;;;;;;;6.54;59.07;98859.75;5113311;28;20027;-62
2021/04/27 09:30:08;;;;;;;10.32;3.30;;;;;;;6.57;59.65;98851.53;5102299;28;20071;-62
2021/04/27 09:32:38;;;;;;;3.70;3.28;;;;;;;6.64;59.22;98858.03;5092706;28;20059;-63
2021/04/27 09:35:42;;;;;;;5.60;3.65;;;;;;;6.83;59.70;98860.06;5092753;28;20136;-63
2021/04/27 09:38:17;;;;;;;7.75;4.20;;;;;;;6.91;59.77;98864.75;5092964;28;20028;-62
2021/04/27 09:40:55;;;;;;;6.93;4.40;;;;;;;6.95;59.16;98847.56;5093284;28;20052;-62
2021/04/27 09:43:33;;;;;;;4.97;4.07;;;;;;;7.17;59.26;98862.66;5092385;28;20032;-64
2021/04/27 09:46:01;;;;;;;4.82;3.80;;;;;;;7.16;58.45;98862.75;5092021;28;20494;-63
2021/04/27 09:48:39;;;;;;;4.75;4.05;;;;;;;7.29;58.72;98862.59;5092288;28;20138;-63
2021/04/27 09:51:14;;;;;;;6.03;4.47;;;;;;;7.30;59.31;98859.81;5101966;28;20114;-63
2021/04/27 09:54:02;;;;;;;4.88;3.80;;;;;;;7.02;58.64;98805.34;5112116;28;20498;-61
2021/04/27 09:56:41;;;;;;;5.50;4.07;;;;;;;7.40;58.08;98841.25;5112126;28;20043;-62
2021/04/27 09:59:16;;;;;;;5.25;3.60;;;;;;;7.69;57.70;98856.63;5112570;28;20069;-62
2021/04/27 10:01:54;;;;;;;6.82;4.25;;;;;;;7.88;56.84;98837.22;5099295;28;20036;-62
2021/04/27 10:04:21;;;;;;;6.05;3.65;;;;;;;8.07;55.54;98841.00;5092080;28;20047;-63
2021/04/27 10:06:48;;;;;;;4.72;3.25;;;;;;;7.88;55.43;98788.44;5091390;28;20051;-63
2021/04/27 10:09:14;;;;;;;7.03;3.67;;;;;;;8.17;55.25;98836.53;5091621;28;20032;-63
2021/04/27 10:11:40;;;;;;;3.15;2.63;;;;;;;8.32;54.72;98854.88;5096407;28;20027;-63
2021/04/27 10:14:08;;;;;;;3.30;2.90;;;;;;;8.24;54.66;98836.88;5112337;28;20149;-62
2021/04/27 10:16:55;;;;;;;4.60;2.72;;;;;;;8.50;54.57;98859.63;5111183;28;20055;-64
2021/04/27 10:19:20;;;;;;;3.30;2.90;;;;;;;8.48;54.54;98844.56;5111926;28;20062;-63
2021/04/27 10:21:48;;;;;;;4.78;2.65;;;;;;;8.57;54.46;98858.09;5105887;28;20499;-63
2021/04/27 10:24:22;;;;;;;5.38;3.33;;;;;;;8.48;54.14;98857.91;5091062;28;20037;-62
2021/04/27 10:26:49;;;;;;;6.20;3.60;;;;;;;8.39;54.48;98845.34;5091171;28;20040;-63
2021/04/27 10:29:26;;;;;;;2.92;2.53;;;;;;;8.35;55.01;98851.94;5091093;28;20127;-63
2021/04/27 10:32:15;;;;;;;4.32;2.65;;;;;;;8.35;55.04;98857.25;5093864;28;20043;-62
2021/04/27 10:35:00;;;;;;;2.90;2.13;;;;;;;8.28;55.15;98854.28;5111856;28;20122;-63
2021/04/27 10:37:31;;;;;;;2.38;2.05;;;;;;;8.15;54.98;98854.50;5111247;28;20035;-63
2021/04/27 10:39:57;;;;;;;3.17;2.40;;;;;;;7.88;54.37;98826.56;5111514;28;20035;-63
2021/04/27 10:42:31;;;;;;;4.22;2.30;;;;;;;8.13;54.84;98866.28;5105797;28;20539;-63
2021/04/27 10:45:02;;;;;;;2.65;2.10;;;;;;;8.05;54.47;98858.94;5095817;28;20044;-62
2021/04/27 10:47:31;;;;;;;2.85;2.10;;;;;;;8.13;54.13;98855.63;5090843;28;20051;-62
2021/04/27 10:49:58;;;;;;;4.22;2.60;;;;;;;8.04;54.50;98847.41;5093588;28;20105;-62
2021/04/27 10:52:31;;;;;;;2.95;2.50;;;;;;;8.04;54.79;98852.75;5101529;28;20047;-63
2021/04/27 10:55:27;;;;;;;2.60;2.40;;;;;;;8.18;55.26;98853.41;5094482;28;20152;-63
2021/04/27 10:57:55;;;;;;;4.20;2.80;;;;;;;8.08;54.97;98858.69;5091111;28;20131;-63
2021/04/27 11:00:43;;;;;;;2.88;2.38;;;;;;;8.01;55.69;98857.53;5091093;28;20054;-62
2021/04/27 11:03:27;;;;;;;3.05;2.38;;;;;;;7.59;55.23;98821.06;5091220;28;20552;-63
2021/04/27 11:05:53;;;;;;;2.88;2.60;;;;;;;7.80;55.65;98854.84;5106842;28;20036;-62
2021/04/27 11:08:19;;;;;;;4.28;2.70;;;;;;;7.79;55.78;98862.00;5111429;28;20055;-59
2021/04/27 11:10:46;;;;;;;3.67;2.70;;;;;;;7.83;55.70;98847.44;5110964;28;20032;-64
2021/04/27 11:13:13;;;;;;;3.58;2.67;;;;;;;7.85;54.79;98852.66;5103843;28;20486;-62
2021/04/27 11:15:42;;;;;;;5.03;3.05;;;;;;;7.84;54.69;98848.31;5090520;28;20134;-63
2021/04/27 11:18:19;;;;;;;3.15;2.47;;;;;;;7.83;55.25;98836.78;5102923;28;20031;-63
2021/04/27 11:20:49;;;;;;;3.53;3.10;;;;;;;7.87;55.19;98837.38;5110931;28;20036;-63
2021/04/27 11:23:36;;;;;;;5.47;3.00;;;;;;;8.00;56.16;98851.34;5104464;28;20447;-63
2021/04/27 11:26:33;;;;;;;5.38;3.30;;;;;;;8.09;54.82;98847.03;5097407;28;20048;-61
2021/04/27 11:28:59;;;;;;;4.18;2.90;;;;;;;8.05;54.62;98843.78;5090450;28;20044;-62
2021/04/27 11:31:26;;;;;;;4.25;3.17;;;;;;;7.92;54.80;98818.31;5090665;28;20044;-63
2021/04/27 11:34:03;;;;;;;5.72;3.20;;;;;;;8.22;55.30;98844.16;5098673;28;20176;-63
2021/04/27 11:36:35;;;;;;;5.25;3.13;;;;;;;8.22;54.62;98844.16;5102128;28;20418;-62
2021/04/27 11:39:15;;;;;;;4.28;3.08;;;;;;;8.26;54.66;98836.75;5089828;28;20558;-64
2021/04/27 11:41:51;;;;;;;4.65;3.08;;;;;;;8.22;55.43;98832.66;5095672;28;20028;-64
2021/04/27 11:44:18;;;;;;;6.25;3.45;;;;;;;8.08;55.16;98820.50;5098766;28;20043;-62